Sacramento, California
Traffic Map
Current Weather Conditions
Sacramento, California
Clear
Clear
19°
Feels Like: 19°
Wind Chill: 19° Ceiling: Unl
Heat Index: 19° Visibility: 10mi
Dew Point: 12° Wind: 5mph
Humidity: 61% Direction: 230° (SW)
Pressure: 29.92in Gusts: 0mph
Raw Report DataKSAC 250653Z AUTO 23004KT 10SM CLR 19/12 A2992 RMK AO2 SLP132 T01940117
Traffic Incident Summary
Active as of:
Severity:
Category:
InformationThere was an issue retrieving the traffic information for this location. Please try a different location or try again shortly.
Advertisements
Track Severe Weather on mobile